Airfield :







YOU CAN JOIN US ON...

 
LOGIN :

Register | Disclaimer

   EN    FR    IT 

 









Legend :    VFR   Marginal VFR   IFR   Intensive IFR   Very Intensive IFR
Visi :
Ceiling :
>= 8 km
>= 3000ft
5 to 8 km
1000 to 3000 ft
1500m to 5 km
500 to 1000 ft
800 to 1500m
200 to 500 ft
< 800m
< 200 ft
Symbols :   Thunderstorms  Fog  Heavy snow  Heavy precipitations  Wind > 20 kt






- Airport Elevation : 477 ft
- IATA code : YHZ


CYHZ - Halifax Stanfield Int.

CURRENT METAR :
  • 282000Z 02005KT 15SM SCT038 BKN160 03/M02 A3003 RMK SC3AC4 SLP175

EXPIRED METARs :
  • 281900Z 29006KT 230V360 15SM FEW032 BKN190 04/M03 A3004 RMK SC1AC6 SLP179
  • 281800Z 32007KT 15SM FEW030 SCT130 BKN220 04/M04 A3004 RMK SC2AC2CI3 SLP179

TAF TAF CYHZ
Valid from the 28 at 18:00 until the 29 at 18:00 UTC


281738Z 2818/2918 VRB03KT P6SM SCT030
TEMPO 2818/2824 BKN030
FM290000 VRB03KT P6SM FEW015
TEMPO 2900/2904 BKN015
PROB30 2900/2904 1SM BR OVC003
FM290400 09005KT 3/4SM -DZ BR OVC002
TEMPO 2904/2906 P6SM NSW BKN030
PROB30 2904/2906 1SM -FZDZ BR
FM290600 03005KT 1/2SM -RA -DZ FG OVC002
FM291100 VRB03KT 3SM -RA -DZ BR OVC006 RMK NXT FCST BY 282100Z
CZQM FIR / North America



MET'MAP, your aeronautical weather chart ! - Copyright ORBIFLY December 2007 - Disclaimer

ORBIFLY MET'MAP TEAM :

Programming & Development : Alexandra Zaïnal
Concept & original design : Baudouin d'Aumeries
Assistance for programming : Marc-Olivier Méhu
Technical & hardware support : Manuel Goepfert

Contact : metmap@orbifly.com




SOURCES & CREDITS :

   NOAA